x

South Santa Rosa Is. Ca (46069) Wave Buoy

4:50 - Wed 4th May 2016 All times are PDT. -7 hours from GMT.

  • Sig Wave height 4.6ft
  • Swell Direction
  • Peak Period 12s
  • Average Period 11s
  • Wind
    4mph
  • Sea Temp 58°f
  • Ar Temp 60°f
  • Sea Pressure 1013mb
  • South Santa Rosa Is. Ca
  • South Santa Rosa Is. Ca

More Historic Weather Station data

Upgrade to MSW Pro to gain access to the past 30 days of data for over 8000 Wavebouys and Weather Stations around the globe.

Join Pro

Comparision Forecast

View Surf forecast
   
Qua 05/04 4:50 4.5ft 12s 11s 4
mph
1013mb 58f 60f
3:50 4.5ft 13s 10s 4
mph
1013.6mb 58f 59f
2:50 5ft 13s 11s 2 4 mph 1014.2mb 59f 58f
1:50 5ft 13s 10s 2 4 mph 1014.9mb 58f 58f
12:50 5ft 13s 10s 4 7 mph 1014.9mb 58f 57f
11:50 5ft 13s 10s 7
mph
1014.9mb 58f 57f
10:50 5.5ft 12s 10s 2 4 mph 1014.7mb 57f 57f
9:50 4.5ft 14s 10s 4 7 mph 1014.2mb 57f 56f
8:50 5.5ft 13s 10s 2 4 mph 1014.2mb 56f 56f
7:50 5.5ft 13s 10s  -  2 mph 1014.3mb 56f 56f
6:50 4.5ft 12s 9s 4
mph
1014mb 56f 56f
5:50 4.5ft 13s 9s 4 7 mph 1013.5mb 56f 55f
4:50 5ft 12s 9s 7 9 mph 1013.2mb 56f 55f
3:50 5ft 13s 9s 7 9 mph 1013.3mb 56f 55f
2:50 5.5ft 13s 8s 9 13 mph 1013.9mb 56f 55f
1:50 5ft 13s 8s 9 11 mph 1014.5mb 56f 55f
12:50 6ft 13s 8s 11 13 mph 1014.8mb 56f 55f
Ter 05/03 11:50 6ft 14s 8s 13 18 mph 1014.5mb 56f 55f
10:50 6ft 13s 8s 11 13 mph 1014.3mb 56f 55f
9:50 7ft 13s 8s 13 18 mph 1013.9mb 56f 55f
8:50 5.5ft 14s 7s 16 18 mph 1013.4mb 56f 55f
7:50 6.5ft 14s 8s 18 22 mph 1013.1mb 56f 55f
6:50 5.5ft 13s 7s 18 22 mph 1013.2mb 56f 56f
5:50 5.5ft 13s 8s 18 20 mph 1013.5mb 56f 56f
4:50 6.5ft 14s 9s 18 22 mph 1014.1mb 57f 56f
3:50 7.5ft 14s 9s 13 18 mph 1014.6mb 57f 56f
2:50 6ft 13s 9s 16 20 mph 1015.3mb 56f 55f
1:50 6ft 14s 9s 16 20 mph 1015.7mb 56f 55f
12:50 6ft 14s 9s 13 16 mph 1015.8mb 56f 55f
11:50 7ft 14s 9s 11 16 mph 1015.9mb 56f 55f
10:50 5.5ft 13s 8s 13 16 mph 1016.3mb 56f 55f
9:50 5.5ft 14s 8s 13 16 mph 1016mb 56f 54f
8:50 6.5ft 15s 8s 13 18 mph 1015.7mb 56f 54f
7:50 5.5ft 14s 8s 16 18 mph 1015.4mb 56f 54f
5:50 6ft 14s 8s 11 13 mph 1014.4mb 56f 54f
4:50 5.5ft 15s 8s 11 13 mph 1014.4mb 56f 55f
3:50 6ft 15s 8s 11 13 mph 1014.2mb 56f 55f
2:50 5.5ft 13s 7s 13 16 mph 1014.5mb 56f 55f
1:50 5ft 14s 6s 16 18 mph 1015.1mb 57f 55f
12:50 5.5ft 13s 7s 16 20 mph 1015.6mb 57f 55f
Seg 05/02 11:50 5.5ft 14s 7s 18 20 mph 1015.3mb 57f 56f
10:50 5ft 15s 7s 16 18 mph 1015.8mb 57f 56f
9:50 5ft 14s 8s 16 18 mph 1015.9mb 57f 56f
8:50 5.5ft 13s 8s 13 18 mph 1015.7mb 57f 56f
7:50 5ft 14s 8s 16 18 mph 1015.3mb 58f 57f
6:50 5ft 12s 8s 13 16 mph 1015.4mb 58f 58f
5:50 5ft 15s 9s 13 16 mph 1015.6mb 58f 58f
4:50 5ft 13s 9s 13 16 mph 1016mb 58f 58f
3:50 5ft 15s 9s 9 11 mph 1016.5mb 58f 57f
2:50 6ft 13s 10s 9 11 mph 1017.1mb 58f 56f
1:50 5ft 14s 9s 9 11 mph 1017.6mb 58f 56f
12:50 5ft 15s 9s 7
mph
1018.1mb 58f 56f
11:50 5ft 14s 9s 4 7 mph 1018.4mb 58f 56f
10:50 6ft 15s 10s 2 7 mph 1018.5mb 58f 56f
9:50 6ft 15s 10s 2
mph
1018.2mb 57f 56f
8:50 5ft 14s 9s 4 7 mph 1017.9mb 57f 55f
7:50 6ft 15s 10s 2 4 mph 1017.4mb 56f 55f
6:50 5ft 16s 9s  -  4 mph 1016.8mb 56f 55f
5:50 5ft 15s 9s 2 4 mph 1016.2mb 56f 55f
4:50 6ft 14s 10s 2 4 mph 1016mb 56f 55f
3:50 5.5ft 16s 9s 4
mph
1016.1mb 56f 55f
2:50 6ft 15s 9s 2 4 mph 1016.1mb 56f 55f
1:50 5ft 15s 9s 2 4 mph 1016.5mb 56f 56f
12:50 6ft 16s 9s 2 4 mph 1016.3mb 56f 56f
Dom 05/01 11:50 6ft 11s 8s 2 4 mph 1016mb 56f 56f
10:50 6ft 10s 9s 4 7 mph 1016mb 56f 56f
9:50 5.5ft 10s 8s 4 7 mph 1015.6mb 56f 56f
8:50 6.5ft 16s 9s 4 7 mph 1015mb 56f 56f
7:50 6ft 16s 9s 2 4 mph 1014mb 57f 56f
6:50 6ft 16s 9s 7 9 mph 1013.5mb 57f 56f
5:50 6ft 11s 9s 7
mph
1013.4mb 57f 57f
4:50 6ft 10s 8s 4 7 mph 1013.4mb 57f 57f
3:50 6ft 10s 9s 7 9 mph 1013.3mb 57f 57f
2:50 6ft 17s 9s 7 9 mph 1013.8mb 56f 57f
1:50 6.5ft 11s 9s 9 11 mph 1013.7mb 56f 56f
12:50 7ft 11s 9s 7 9 mph 1013.6mb 56f 57f
11:50 7.5ft 17s 9s 7 11 mph 1013.5mb 56f 56f
10:50 7.5ft 17s 9s 7 9 mph 1013.2mb 56f 56f
9:50 7.5ft 11s 8s 7 9 mph 1012.7mb 56f 56f
8:50 7ft 11s 8s  -  2 mph 1012.1mb 55f 56f
7:50 7ft 11s 8s 2 4 mph 1011.6mb 55f 55f
6:50 7ft 11s 8s 4
mph
1011mb 55f 55f
5:50 7ft 10s 8s 4 7 mph 1010.1mb 55f 54f
4:50 7ft 11s 8s 4 7 mph 1009.9mb 55f 54f
3:50 7ft 11s 8s 7 9 mph 1009.7mb 55f 55f
2:50 8ft 10s 8s 9 11 mph 1009.5mb 55f 55f
1:50 7.5ft 11s 7s 9 11 mph 1009.8mb 55f 55f
12:50 8ft 10s 7s 13 18 mph 1010mb 55f 55f